KCHS/CHS METAR and TAF weather

Enter ICAO airport designator
Station Type Date Time Source
KCHS METAR 2021/09/25 02:56 UTC NOAA

KCHS 250256Z 34004KT 10SM FEW250 16/13 A3007 RMK AO2 SLP183 T01560133 51008


Station Type Date Time Source
KCHS Decoded METAR 2021/09/25 02:56 UTC NOAA

CHARLESTON INT'L AIRPORT, SC, United States (KCHS) 32-54N 080-02W 13M
Sep 24, 2021 - 10:56 PM EDT / 2021.09.25 0256 UTC
Wind: from the NNW (340 degrees) at 5 MPH (4 KT):0
Visibility: 10 mile(s):0
Sky conditions: mostly clear
Temperature: 60.1 F (15.6 C)
Dew Point: 55.9 F (13.3 C)
Relative Humidity: 86%
Pressure (altimeter): 30.07 in. Hg (1018 hPa)
Pressure tendency: 0.02 inches (0.8 hPa) higher than three hours ago
ob: KCHS 250256Z 34004KT 10SM FEW250 16/13 A3007 RMK AO2 SLP183 T01560133 51008
cycle: 3

Station Type Date Time Source
KCHS TAF 2021/09/24 18:27 UTC NOAA

TAF KCHS 241720Z 2418/2518 04009KT P6SM SKC
FM250200 01003KT P6SM SKC
FM251300 36005KT P6SM FEW250

Example: see airport list